sensor_id;sensor_type;location;lat;lon;timestamp;pressure;altitude;pressure_sealevel;temperature;humidity
35226;BME280;21813;49.686;21.766;2023-05-20T00:02:21;99260.94;;;11.26;100.00
35226;BME280;21813;49.686;21.766;2023-05-20T00:04:48;99248.81;;;11.25;100.00
35226;BME280;21813;49.686;21.766;2023-05-20T00:07:14;99252.69;;;11.32;100.00
35226;BME280;21813;49.686;21.766;2023-05-20T00:09:41;99261.16;;;11.35;100.00
35226;BME280;21813;49.686;21.766;2023-05-20T00:12:07;99263.84;;;11.34;100.00
35226;BME280;21813;49.686;21.766;2023-05-20T00:14:33;99270.53;;;11.38;100.00
35226;BME280;21813;49.686;21.766;2023-05-20T00:16:59;99245.28;;;11.26;100.00
35226;BME280;21813;49.686;21.766;2023-05-20T00:19:25;99255.19;;;11.33;100.00
35226;BME280;21813;49.686;21.766;2023-05-20T00:21:51;99253.63;;;11.31;100.00
35226;BME280;21813;49.686;21.766;2023-05-20T00:24:18;99241.50;;;11.30;100.00
35226;BME280;21813;49.686;21.766;2023-05-20T00:26:44;99249.88;;;11.35;100.00
35226;BME280;21813;49.686;21.766;2023-05-20T00:29:12;99253.00;;;11.40;100.00
35226;BME280;21813;49.686;21.766;2023-05-20T00:31:37;99266.78;;;11.42;100.00
35226;BME280;21813;49.686;21.766;2023-05-20T00:34:05;99268.25;;;11.46;100.00
35226;BME280;21813;49.686;21.766;2023-05-20T00:36:30;99246.72;;;11.30;100.00
35226;BME280;21813;49.686;21.766;2023-05-20T00:38:57;99251.53;;;11.36;100.00
35226;BME280;21813;49.686;21.766;2023-05-20T00:41:23;99253.84;;;11.40;100.00
35226;BME280;21813;49.686;21.766;2023-05-20T00:43:53;99249.16;;;11.33;100.00
35226;BME280;21813;49.686;21.766;2023-05-20T00:46:19;99261.56;;;11.42;100.00
35226;BME280;21813;49.686;21.766;2023-05-20T00:48:47;99241.31;;;11.33;100.00
35226;BME280;21813;49.686;21.766;2023-05-20T00:51:13;99236.09;;;11.33;100.00
35226;BME280;21813;49.686;21.766;2023-05-20T00:53:41;99272.41;;;11.48;100.00
35226;BME280;21813;49.686;21.766;2023-05-20T00:56:08;99240.34;;;11.34;100.00
35226;BME280;21813;49.686;21.766;2023-05-20T00:58:36;99235.97;;;11.34;100.00
35226;BME280;21813;49.686;21.766;2023-05-20T01:01:02;99240.16;;;11.37;100.00
35226;BME280;21813;49.686;21.766;2023-05-20T01:03:29;99246.84;;;11.41;100.00
35226;BME280;21813;49.686;21.766;2023-05-20T01:05:55;99236.28;;;11.42;100.00
35226;BME280;21813;49.686;21.766;2023-05-20T01:08:23;99256.75;;;11.48;100.00
35226;BME280;21813;49.686;21.766;2023-05-20T01:11:06;99250.69;;;11.48;100.00
35226;BME280;21813;49.686;21.766;2023-05-20T01:13:42;99243.59;;;11.50;100.00
35226;BME280;21813;49.686;21.766;2023-05-20T01:16:10;99246.91;;;11.52;100.00
35226;BME280;21813;49.686;21.766;2023-05-20T01:18:38;99230.72;;;11.47;100.00
35226;BME280;21813;49.686;21.766;2023-05-20T01:21:10;99233.34;;;11.47;100.00
35226;BME280;21813;49.686;21.766;2023-05-20T01:23:38;99238.13;;;11.53;100.00
35226;BME280;21813;49.686;21.766;2023-05-20T01:26:04;99243.28;;;11.55;100.00
35226;BME280;21813;49.686;21.766;2023-05-20T01:28:35;99239.81;;;11.54;100.00
35226;BME280;21813;49.686;21.766;2023-05-20T01:31:04;99223.13;;;11.44;100.00
35226;BME280;21813;49.686;21.766;2023-05-20T01:33:35;99231.06;;;11.55;100.00
35226;BME280;21813;49.686;21.766;2023-05-20T01:36:01;99238.75;;;11.57;100.00
35226;BME280;21813;49.686;21.766;2023-05-20T01:38:29;99230.00;;;11.58;100.00
35226;BME280;21813;49.686;21.766;2023-05-20T01:40:56;99218.41;;;11.49;100.00
35226;BME280;21813;49.686;21.766;2023-05-20T01:43:25;99210.34;;;11.52;100.00
35226;BME280;21813;49.686;21.766;2023-05-20T01:45:52;99240.84;;;11.64;100.00
35226;BME280;21813;49.686;21.766;2023-05-20T01:48:20;99223.94;;;11.57;100.00
35226;BME280;21813;49.686;21.766;2023-05-20T01:50:45;99214.66;;;11.53;100.00
35226;BME280;21813;49.686;21.766;2023-05-20T01:53:13;99215.59;;;11.52;100.00
35226;BME280;21813;49.686;21.766;2023-05-20T01:55:39;99216.22;;;11.56;100.00
35226;BME280;21813;49.686;21.766;2023-05-20T01:58:05;99216.22;;;11.56;100.00
35226;BME280;21813;49.686;21.766;2023-05-20T02:00:32;99208.50;;;11.54;100.00
35226;BME280;21813;49.686;21.766;2023-05-20T02:03:00;99230.41;;;11.64;100.00
35226;BME280;21813;49.686;21.766;2023-05-20T02:05:28;99212.78;;;11.55;100.00
35226;BME280;21813;49.686;21.766;2023-05-20T02:07:55;99217.53;;;11.61;100.00
35226;BME280;21813;49.686;21.766;2023-05-20T02:10:21;99219.22;;;11.62;100.00
35226;BME280;21813;49.686;21.766;2023-05-20T02:12:48;99214.94;;;11.61;100.00
35226;BME280;21813;49.686;21.766;2023-05-20T02:15:14;99211.63;;;11.59;100.00
35226;BME280;21813;49.686;21.766;2023-05-20T02:17:40;99213.16;;;11.62;100.00
35226;BME280;21813;49.686;21.766;2023-05-20T02:20:08;99228.50;;;11.66;100.00
35226;BME280;21813;49.686;21.766;2023-05-20T02:22:36;99226.63;;;11.68;100.00
35226;BME280;21813;49.686;21.766;2023-05-20T02:25:02;99223.41;;;11.65;100.00
35226;BME280;21813;49.686;21.766;2023-05-20T02:27:30;99240.94;;;11.75;100.00
35226;BME280;21813;49.686;21.766;2023-05-20T02:29:56;99228.31;;;11.69;100.00
35226;BME280;21813;49.686;21.766;2023-05-20T02:32:22;99223.28;;;11.66;100.00
35226;BME280;21813;49.686;21.766;2023-05-20T02:34:53;99209.94;;;11.58;100.00
35226;BME280;21813;49.686;21.766;2023-05-20T02:37:20;99230.50;;;11.75;100.00
35226;BME280;21813;49.686;21.766;2023-05-20T02:39:46;99206.25;;;11.61;100.00
35226;BME280;21813;49.686;21.766;2023-05-20T02:42:12;99198.66;;;11.58;100.00
35226;BME280;21813;49.686;21.766;2023-05-20T02:44:38;99200.09;;;11.62;100.00
35226;BME280;21813;49.686;21.766;2023-05-20T02:47:06;99224.56;;;11.73;100.00
35226;BME280;21813;49.686;21.766;2023-05-20T02:49:34;99215.56;;;11.65;100.00
35226;BME280;21813;49.686;21.766;2023-05-20T02:52:01;99235.63;;;11.77;100.00
35226;BME280;21813;49.686;21.766;2023-05-20T02:54:27;99226.34;;;11.73;100.00
35226;BME280;21813;49.686;21.766;2023-05-20T02:56:53;99222.88;;;11.72;100.00
35226;BME280;21813;49.686;21.766;2023-05-20T02:59:19;99226.41;;;11.71;100.00
35226;BME280;21813;49.686;21.766;2023-05-20T03:01:51;99213.47;;;11.70;100.00
35226;BME280;21813;49.686;21.766;2023-05-20T03:04:24;99206.16;;;11.62;100.00
35226;BME280;21813;49.686;21.766;2023-05-20T03:06:54;99217.34;;;11.64;100.00
35226;BME280;21813;49.686;21.766;2023-05-20T03:09:24;99235.00;;;11.73;100.00
35226;BME280;21813;49.686;21.766;2023-05-20T03:11:52;99243.56;;;11.75;100.00
35226;BME280;21813;49.686;21.766;2023-05-20T03:14:21;99246.69;;;11.80;100.00
35226;BME280;21813;49.686;21.766;2023-05-20T03:16:47;99225.88;;;11.66;100.00
35226;BME280;21813;49.686;21.766;2023-05-20T03:19:13;99227.66;;;11.66;100.00
35226;BME280;21813;49.686;21.766;2023-05-20T03:21:40;99237.63;;;11.73;100.00
35226;BME280;21813;49.686;21.766;2023-05-20T03:24:09;99238.56;;;11.72;100.00
35226;BME280;21813;49.686;21.766;2023-05-20T03:26:36;99228.31;;;11.69;100.00
35226;BME280;21813;49.686;21.766;2023-05-20T03:29:08;99253.34;;;11.84;100.00
35226;BME280;21813;49.686;21.766;2023-05-20T03:31:35;99224.03;;;11.68;100.00
35226;BME280;21813;49.686;21.766;2023-05-20T03:34:01;99246.16;;;11.75;100.00
35226;BME280;21813;49.686;21.766;2023-05-20T03:36:27;99245.84;;;11.80;100.00
35226;BME280;21813;49.686;21.766;2023-05-20T03:38:53;99258.38;;;11.87;100.00
35226;BME280;21813;49.686;21.766;2023-05-20T03:41:22;99230.16;;;11.80;100.00
35226;BME280;21813;49.686;21.766;2023-05-20T03:43:48;99264.13;;;11.92;100.00
35226;BME280;21813;49.686;21.766;2023-05-20T03:46:15;99232.91;;;11.78;100.00
35226;BME280;21813;49.686;21.766;2023-05-20T03:48:41;99234.03;;;11.87;100.00
35226;BME280;21813;49.686;21.766;2023-05-20T03:51:08;99260.22;;;11.98;100.00
35226;BME280;21813;49.686;21.766;2023-05-20T03:53:34;99247.47;;;11.93;100.00
35226;BME280;21813;49.686;21.766;2023-05-20T03:56:02;99254.19;;;11.98;100.00
35226;BME280;21813;49.686;21.766;2023-05-20T03:58:27;99256.47;;;12.02;100.00
35226;BME280;21813;49.686;21.766;2023-05-20T04:00:54;99233.69;;;11.91;100.00
35226;BME280;21813;49.686;21.766;2023-05-20T04:03:20;99256.00;;;12.08;100.00
35226;BME280;21813;49.686;21.766;2023-05-20T04:05:48;99244.34;;;12.01;100.00
35226;BME280;21813;49.686;21.766;2023-05-20T04:08:14;99234.22;;;11.97;100.00
35226;BME280;21813;49.686;21.766;2023-05-20T04:10:41;99239.72;;;12.05;100.00
35226;BME280;21813;49.686;21.766;2023-05-20T04:13:07;99253.06;;;12.13;100.00
35226;BME280;21813;49.686;21.766;2023-05-20T04:15:37;99244.38;;;12.12;100.00
35226;BME280;21813;49.686;21.766;2023-05-20T04:18:05;99245.72;;;12.18;100.00
35226;BME280;21813;49.686;21.766;2023-05-20T04:20:33;99234.75;;;12.13;100.00
35226;BME280;21813;49.686;21.766;2023-05-20T04:22:58;99251.22;;;12.26;100.00
35226;BME280;21813;49.686;21.766;2023-05-20T04:25:26;99243.59;;;12.23;100.00
35226;BME280;21813;49.686;21.766;2023-05-20T04:27:52;99238.47;;;12.21;100.00
35226;BME280;21813;49.686;21.766;2023-05-20T04:30:20;99222.94;;;12.20;100.00
35226;BME280;21813;49.686;21.766;2023-05-20T04:32:47;99232.72;;;12.29;100.00
35226;BME280;21813;49.686;21.766;2023-05-20T04:35:13;99245.81;;;12.40;100.00
35226;BME280;21813;49.686;21.766;2023-05-20T04:37:39;99247.25;;;12.44;100.00
35226;BME280;21813;49.686;21.766;2023-05-20T04:40:07;99235.34;;;12.40;100.00
35226;BME280;21813;49.686;21.766;2023-05-20T04:42:33;99217.63;;;12.32;100.00
35226;BME280;21813;49.686;21.766;2023-05-20T04:45:01;99257.28;;;12.50;100.00
35226;BME280;21813;49.686;21.766;2023-05-20T04:47:28;99241.81;;;12.47;100.00
35226;BME280;21813;49.686;21.766;2023-05-20T04:49:57;99255.41;;;12.52;100.00
35226;BME280;21813;49.686;21.766;2023-05-20T04:52:23;99228.16;;;12.44;100.00
35226;BME280;21813;49.686;21.766;2023-05-20T04:54:49;99220.06;;;12.47;100.00
35226;BME280;21813;49.686;21.766;2023-05-20T04:57:16;99252.34;;;12.69;100.00
35226;BME280;21813;49.686;21.766;2023-05-20T05:03:47;99241.47;;;12.87;100.00
35226;BME280;21813;49.686;21.766;2023-05-20T05:06:33;99247.31;;;13.01;100.00
35226;BME280;21813;49.686;21.766;2023-05-20T05:12:46;99231.16;;;13.07;100.00
35226;BME280;21813;49.686;21.766;2023-05-20T05:15:12;99253.00;;;13.30;100.00
35226;BME280;21813;49.686;21.766;2023-05-20T05:17:39;99248.00;;;13.27;100.00
35226;BME280;21813;49.686;21.766;2023-05-20T05:20:05;99238.94;;;13.20;100.00
35226;BME280;21813;49.686;21.766;2023-05-20T05:22:44;99241.09;;;13.26;100.00
35226;BME280;21813;49.686;21.766;2023-05-20T05:25:10;99232.75;;;13.21;100.00
35226;BME280;21813;49.686;21.766;2023-05-20T05:35:57;99266.09;;;13.52;100.00
35226;BME280;21813;49.686;21.766;2023-05-20T05:38:46;99249.31;;;13.44;100.00
35226;BME280;21813;49.686;21.766;2023-05-20T05:45:23;99266.09;;;13.63;100.00
35226;BME280;21813;49.686;21.766;2023-05-20T05:51:19;99262.03;;;13.70;100.00
35226;BME280;21813;49.686;21.766;2023-05-20T05:54:11;99241.56;;;13.64;100.00
35226;BME280;21813;49.686;21.766;2023-05-20T05:56:37;99240.38;;;13.68;100.00
35226;BME280;21813;49.686;21.766;2023-05-20T05:59:08;99244.16;;;13.76;100.00
35226;BME280;21813;49.686;21.766;2023-05-20T06:01:42;99245.84;;;13.77;100.00
35226;BME280;21813;49.686;21.766;2023-05-20T06:04:26;99252.97;;;13.86;100.00
35226;BME280;21813;49.686;21.766;2023-05-20T06:06:54;99243.69;;;13.82;100.00
35226;BME280;21813;49.686;21.766;2023-05-20T06:09:25;99252.50;;;13.92;100.00
35226;BME280;21813;49.686;21.766;2023-05-20T06:11:50;99261.78;;;13.96;100.00
35226;BME280;21813;49.686;21.766;2023-05-20T06:14:18;99237.38;;;13.84;100.00
35226;BME280;21813;49.686;21.766;2023-05-20T06:16:44;99236.31;;;13.87;100.00
35226;BME280;21813;49.686;21.766;2023-05-20T06:19:26;99230.56;;;13.93;100.00
35226;BME280;21813;49.686;21.766;2023-05-20T06:21:56;99252.47;;;14.03;100.00
35226;BME280;21813;49.686;21.766;2023-05-20T06:24:23;99251.72;;;14.12;100.00
35226;BME280;21813;49.686;21.766;2023-05-20T06:26:49;99265.03;;;14.20;100.00
35226;BME280;21813;49.686;21.766;2023-05-20T06:32:15;99253.81;;;14.29;100.00
35226;BME280;21813;49.686;21.766;2023-05-20T06:38:34;99249.19;;;14.33;100.00
35226;BME280;21813;49.686;21.766;2023-05-20T06:41:12;99257.75;;;14.46;100.00
35226;BME280;21813;49.686;21.766;2023-05-20T06:43:50;99258.19;;;14.51;100.00
35226;BME280;21813;49.686;21.766;2023-05-20T06:46:18;99251.97;;;14.52;100.00
35226;BME280;21813;49.686;21.766;2023-05-20T06:49:10;99251.28;;;14.50;100.00
35226;BME280;21813;49.686;21.766;2023-05-20T06:51:37;99250.19;;;14.52;100.00
35226;BME280;21813;49.686;21.766;2023-05-20T06:54:02;99236.13;;;14.53;100.00
35226;BME280;21813;49.686;21.766;2023-05-20T07:01:23;99251.44;;;14.69;100.00
35226;BME280;21813;49.686;21.766;2023-05-20T07:15:49;99258.44;;;15.21;100.00
35226;BME280;21813;49.686;21.766;2023-05-20T07:24:19;99239.38;;;15.08;100.00
35226;BME280;21813;49.686;21.766;2023-05-20T07:27:28;99242.06;;;15.18;100.00
35226;BME280;21813;49.686;21.766;2023-05-20T07:48:48;99233.19;;;15.60;100.00
35226;BME280;21813;49.686;21.766;2023-05-20T07:58:09;99223.66;;;15.69;100.00
35226;BME280;21813;49.686;21.766;2023-05-20T08:00:41;99236.59;;;15.91;100.00
35226;BME280;21813;49.686;21.766;2023-05-20T08:05:48;99243.59;;;16.30;100.00
35226;BME280;21813;49.686;21.766;2023-05-20T08:08:36;99219.22;;;16.38;100.00
35226;BME280;21813;49.686;21.766;2023-05-20T08:13:34;99208.69;;;16.38;100.00
35226;BME280;21813;49.686;21.766;2023-05-20T08:16:06;99240.56;;;16.54;100.00
35226;BME280;21813;49.686;21.766;2023-05-20T08:18:34;99234.88;;;16.49;100.00
35226;BME280;21813;49.686;21.766;2023-05-20T08:21:01;99232.25;;;16.49;100.00
35226;BME280;21813;49.686;21.766;2023-05-20T08:27:02;99232.22;;;16.40;100.00
35226;BME280;21813;49.686;21.766;2023-05-20T08:29:31;99244.69;;;16.47;100.00
35226;BME280;21813;49.686;21.766;2023-05-20T08:31:57;99233.06;;;16.40;100.00
35226;BME280;21813;49.686;21.766;2023-05-20T08:34:25;99239.59;;;16.55;100.00
35226;BME280;21813;49.686;21.766;2023-05-20T08:37:28;99217.31;;;16.59;100.00
35226;BME280;21813;49.686;21.766;2023-05-20T08:40:21;99247.22;;;16.87;100.00
35226;BME280;21813;49.686;21.766;2023-05-20T08:43:35;99238.59;;;17.04;100.00
35226;BME280;21813;49.686;21.766;2023-05-20T08:50:15;99222.72;;;17.23;100.00
35226;BME280;21813;49.686;21.766;2023-05-20T08:53:02;99227.69;;;17.36;100.00
35226;BME280;21813;49.686;21.766;2023-05-20T08:56:06;99226.41;;;17.40;100.00
35226;BME280;21813;49.686;21.766;2023-05-20T09:56:41;99164.44;;;19.13;100.00
35226;BME280;21813;49.686;21.766;2023-05-20T09:59:36;99165.03;;;19.75;97.98
35226;BME280;21813;49.686;21.766;2023-05-20T10:02:36;99152.09;;;20.70;92.63
35226;BME280;21813;49.686;21.766;2023-05-20T10:05:06;99162.44;;;21.59;88.10
35226;BME280;21813;49.686;21.766;2023-05-20T10:19:48;99157.47;;;23.30;79.63
35226;BME280;21813;49.686;21.766;2023-05-20T10:22:26;99147.28;;;23.34;80.22
35226;BME280;21813;49.686;21.766;2023-05-20T10:25:04;99164.97;;;23.12;80.01
35226;BME280;21813;49.686;21.766;2023-05-20T10:27:46;99153.84;;;22.57;82.44
35226;BME280;21813;49.686;21.766;2023-05-20T10:30:19;99157.31;;;22.42;87.41
35226;BME280;21813;49.686;21.766;2023-05-20T10:33:04;99140.03;;;22.84;83.10
35226;BME280;21813;49.686;21.766;2023-05-20T10:35:32;99158.19;;;23.54;77.08
35226;BME280;21813;49.686;21.766;2023-05-20T10:38:07;99117.16;;;23.99;75.59
35226;BME280;21813;49.686;21.766;2023-05-20T10:40:34;99129.91;;;24.03;78.11
35226;BME280;21813;49.686;21.766;2023-05-20T10:43:13;99119.41;;;24.02;75.02
35226;BME280;21813;49.686;21.766;2023-05-20T10:45:52;99107.47;;;24.61;74.03
35226;BME280;21813;49.686;21.766;2023-05-20T10:48:40;99129.66;;;24.90;72.09
35226;BME280;21813;49.686;21.766;2023-05-20T10:51:13;99129.03;;;23.82;75.50
35226;BME280;21813;49.686;21.766;2023-05-20T10:54:14;99097.13;;;22.50;81.19
35226;BME280;21813;49.686;21.766;2023-05-20T10:56:51;99122.69;;;22.13;82.47
35226;BME280;21813;49.686;21.766;2023-05-20T10:59:29;99120.91;;;21.75;86.47
35226;BME280;21813;49.686;21.766;2023-05-20T11:02:21;99128.03;;;21.43;86.22
35226;BME280;21813;49.686;21.766;2023-05-20T11:05:15;99100.69;;;21.04;88.64
35226;BME280;21813;49.686;21.766;2023-05-20T11:07:42;99097.84;;;21.05;87.08
35226;BME280;21813;49.686;21.766;2023-05-20T11:10:08;99117.22;;;21.14;88.50
35226;BME280;21813;49.686;21.766;2023-05-20T11:12:35;99118.31;;;21.28;88.96
35226;BME280;21813;49.686;21.766;2023-05-20T11:15:00;99107.28;;;21.08;87.98
35226;BME280;21813;49.686;21.766;2023-05-20T11:17:29;99089.88;;;21.13;87.40
35226;BME280;21813;49.686;21.766;2023-05-20T11:19:54;99077.44;;;21.22;84.07
35226;BME280;21813;49.686;21.766;2023-05-20T11:22:21;99088.63;;;21.32;85.66
35226;BME280;21813;49.686;21.766;2023-05-20T11:24:50;99083.00;;;21.35;84.94
35226;BME280;21813;49.686;21.766;2023-05-20T11:27:20;99107.78;;;21.50;83.72
35226;BME280;21813;49.686;21.766;2023-05-20T11:29:55;99085.59;;;21.43;79.82
35226;BME280;21813;49.686;21.766;2023-05-20T11:32:23;99076.03;;;21.34;82.93
35226;BME280;21813;49.686;21.766;2023-05-20T11:34:50;99090.91;;;21.43;86.41
35226;BME280;21813;49.686;21.766;2023-05-20T11:37:30;99083.63;;;21.45;85.36
35226;BME280;21813;49.686;21.766;2023-05-20T11:40:04;99070.81;;;21.49;85.15
35226;BME280;21813;49.686;21.766;2023-05-20T11:42:33;99087.53;;;21.57;88.02
35226;BME280;21813;49.686;21.766;2023-05-20T11:45:00;99063.81;;;21.56;85.78
35226;BME280;21813;49.686;21.766;2023-05-20T11:47:27;99051.78;;;21.45;84.40
35226;BME280;21813;49.686;21.766;2023-05-20T11:49:55;99070.25;;;21.62;85.45
35226;BME280;21813;49.686;21.766;2023-05-20T11:52:24;99067.38;;;21.71;84.43
35226;BME280;21813;49.686;21.766;2023-05-20T11:54:51;99055.41;;;21.75;84.12
35226;BME280;21813;49.686;21.766;2023-05-20T11:57:20;99069.34;;;21.92;82.07
35226;BME280;21813;49.686;21.766;2023-05-20T11:59:46;99053.34;;;21.85;82.41
35226;BME280;21813;49.686;21.766;2023-05-20T12:02:13;99071.06;;;21.93;79.74
35226;BME280;21813;49.686;21.766;2023-05-20T12:04:38;99049.47;;;21.96;82.86
35226;BME280;21813;49.686;21.766;2023-05-20T12:07:06;99058.38;;;22.03;81.23
35226;BME280;21813;49.686;21.766;2023-05-20T12:09:34;99058.38;;;22.03;82.17
35226;BME280;21813;49.686;21.766;2023-05-20T12:12:01;99052.53;;;22.08;74.07
35226;BME280;21813;49.686;21.766;2023-05-20T12:14:28;99047.66;;;22.11;74.77
35226;BME280;21813;49.686;21.766;2023-05-20T12:16:54;99040.66;;;22.18;72.02
35226;BME280;21813;49.686;21.766;2023-05-20T12:19:20;99028.38;;;22.17;70.59
35226;BME280;21813;49.686;21.766;2023-05-20T12:21:46;99033.25;;;22.28;69.40
35226;BME280;21813;49.686;21.766;2023-05-20T12:24:12;99045.09;;;22.40;68.78
35226;BME280;21813;49.686;21.766;2023-05-20T12:26:39;99029.25;;;22.32;67.72
35226;BME280;21813;49.686;21.766;2023-05-20T12:29:05;99050.03;;;22.43;67.72
35226;BME280;21813;49.686;21.766;2023-05-20T12:31:32;99034.19;;;22.35;66.24
35226;BME280;21813;49.686;21.766;2023-05-20T12:33:58;99037.28;;;22.39;64.56
35226;BME280;21813;49.686;21.766;2023-05-20T12:36:24;99036.84;;;22.35;64.04
35226;BME280;21813;49.686;21.766;2023-05-20T12:38:50;99040.16;;;22.37;62.98
35226;BME280;21813;49.686;21.766;2023-05-20T12:41:18;99026.13;;;22.43;64.01
35226;BME280;21813;49.686;21.766;2023-05-20T12:43:43;99035.13;;;22.42;65.32
35226;BME280;21813;49.686;21.766;2023-05-20T12:46:11;99026.22;;;22.35;66.34
35226;BME280;21813;49.686;21.766;2023-05-20T12:48:37;99036.94;;;22.42;65.09
35226;BME280;21813;49.686;21.766;2023-05-20T12:51:03;99016.25;;;22.37;63.36
35226;BME280;21813;49.686;21.766;2023-05-20T12:53:29;99026.88;;;22.37;63.05
35226;BME280;21813;49.686;21.766;2023-05-20T12:55:58;99013.31;;;22.32;63.16
35226;BME280;21813;49.686;21.766;2023-05-20T12:58:24;98982.53;;;22.23;63.35
35226;BME280;21813;49.686;21.766;2023-05-20T13:00:51;98988.75;;;22.30;70.28
35226;BME280;21813;49.686;21.766;2023-05-20T13:03:16;98992.09;;;22.24;64.27
35226;BME280;21813;49.686;21.766;2023-05-20T13:05:43;99008.44;;;22.36;64.13
35226;BME280;21813;49.686;21.766;2023-05-20T13:08:08;99009.44;;;22.35;62.67
35226;BME280;21813;49.686;21.766;2023-05-20T13:10:37;98992.78;;;22.26;62.20
35226;BME280;21813;49.686;21.766;2023-05-20T13:13:05;99005.84;;;22.13;63.30
35226;BME280;21813;49.686;21.766;2023-05-20T13:15:35;98972.97;;;22.14;62.91
35226;BME280;21813;49.686;21.766;2023-05-20T13:18:02;98970.31;;;22.14;64.18
35226;BME280;21813;49.686;21.766;2023-05-20T13:20:29;98978.50;;;22.27;64.21
35226;BME280;21813;49.686;21.766;2023-05-20T13:22:55;98982.44;;;22.31;63.79
35226;BME280;21813;49.686;21.766;2023-05-20T13:25:22;98991.84;;;22.34;65.26
35226;BME280;21813;49.686;21.766;2023-05-20T13:27:47;98979.41;;;22.34;65.90
35226;BME280;21813;49.686;21.766;2023-05-20T13:30:14;98964.28;;;22.20;66.06
35226;BME280;21813;49.686;21.766;2023-05-20T13:32:40;98980.06;;;22.36;65.85
35226;BME280;21813;49.686;21.766;2023-05-20T13:35:07;98964.38;;;22.27;65.85
35226;BME280;21813;49.686;21.766;2023-05-20T13:37:33;98961.09;;;22.39;65.52
35226;BME280;21813;49.686;21.766;2023-05-20T13:39:59;98980.13;;;22.58;66.10
35226;BME280;21813;49.686;21.766;2023-05-20T13:42:25;98966.50;;;22.46;66.70
35226;BME280;21813;49.686;21.766;2023-05-20T13:44:51;98958.16;;;22.34;67.09
35226;BME280;21813;49.686;21.766;2023-05-20T13:47:17;98955.78;;;22.39;67.43
35226;BME280;21813;49.686;21.766;2023-05-20T13:49:44;98936.91;;;22.34;66.79
35226;BME280;21813;49.686;21.766;2023-05-20T13:52:11;98959.81;;;22.35;68.50
35226;BME280;21813;49.686;21.766;2023-05-20T13:54:39;98959.81;;;22.50;68.39
35226;BME280;21813;49.686;21.766;2023-05-20T13:57:07;98956.69;;;22.46;68.42
35226;BME280;21813;49.686;21.766;2023-05-20T13:59:37;98957.97;;;22.51;67.92
35226;BME280;21813;49.686;21.766;2023-05-20T14:02:06;98960.81;;;22.49;67.65
35226;BME280;21813;49.686;21.766;2023-05-20T14:04:33;98946.97;;;22.39;70.10
35226;BME280;21813;49.686;21.766;2023-05-20T14:07:07;98974.81;;;22.58;70.06
35226;BME280;21813;49.686;21.766;2023-05-20T14:10:10;98943.41;;;22.46;69.72
35226;BME280;21813;49.686;21.766;2023-05-20T14:12:36;98944.88;;;22.49;69.01
35226;BME280;21813;49.686;21.766;2023-05-20T14:15:12;98937.06;;;22.47;70.16
35226;BME280;21813;49.686;21.766;2023-05-20T14:17:44;98969.59;;;22.64;71.92
35226;BME280;21813;49.686;21.766;2023-05-20T14:20:11;98971.56;;;22.70;72.75
35226;BME280;21813;49.686;21.766;2023-05-20T14:22:55;98948.91;;;22.60;71.66
35226;BME280;21813;49.686;21.766;2023-05-20T14:25:24;98944.59;;;22.59;71.03
35226;BME280;21813;49.686;21.766;2023-05-20T14:27:50;98951.44;;;22.68;71.29
35226;BME280;21813;49.686;21.766;2023-05-20T14:30:17;98947.13;;;22.67;70.86
35226;BME280;21813;49.686;21.766;2023-05-20T14:32:42;98974.84;;;22.87;71.07
35226;BME280;21813;49.686;21.766;2023-05-20T14:35:09;98964.66;;;22.76;70.15
35226;BME280;21813;49.686;21.766;2023-05-20T14:37:34;98955.41;;;22.72;71.64
35226;BME280;21813;49.686;21.766;2023-05-20T14:40:03;98943.84;;;22.65;72.77
35226;BME280;21813;49.686;21.766;2023-05-20T14:42:29;98934.34;;;22.56;73.97
35226;BME280;21813;49.686;21.766;2023-05-20T14:44:56;98947.81;;;22.54;73.33
35226;BME280;21813;49.686;21.766;2023-05-20T14:47:22;98970.78;;;22.62;73.93
35226;BME280;21813;49.686;21.766;2023-05-20T14:49:48;98951.09;;;22.56;73.93
35226;BME280;21813;49.686;21.766;2023-05-20T14:52:15;98961.63;;;22.64;75.04
35226;BME280;21813;49.686;21.766;2023-05-20T14:54:42;98974.00;;;22.72;74.97
35226;BME280;21813;49.686;21.766;2023-05-20T14:57:07;98971.34;;;22.72;75.71
35226;BME280;21813;49.686;21.766;2023-05-20T14:59:35;98948.25;;;22.58;75.98
35226;BME280;21813;49.686;21.766;2023-05-20T15:02:01;98981.66;;;22.75;76.41
35226;BME280;21813;49.686;21.766;2023-05-20T15:04:31;98950.81;;;22.66;75.34
35226;BME280;21813;49.686;21.766;2023-05-20T15:06:57;98936.44;;;22.60;76.35
35226;BME280;21813;49.686;21.766;2023-05-20T15:09:25;98966.75;;;22.80;76.16
35226;BME280;21813;49.686;21.766;2023-05-20T15:11:51;99001.81;;;22.84;75.03
35226;BME280;21813;49.686;21.766;2023-05-20T15:14:18;99007.25;;;22.38;78.90
35226;BME280;21813;49.686;21.766;2023-05-20T15:16:44;99001.78;;;21.57;83.20
35226;BME280;21813;49.686;21.766;2023-05-20T15:19:11;99010.88;;;20.54;89.59
35226;BME280;21813;49.686;21.766;2023-05-20T15:21:39;98997.09;;;19.79;95.28
35226;BME280;21813;49.686;21.766;2023-05-20T15:24:06;98977.28;;;19.09;100.00
35226;BME280;21813;49.686;21.766;2023-05-20T15:26:32;98992.72;;;18.87;100.00
35226;BME280;21813;49.686;21.766;2023-05-20T15:29:13;98996.56;;;18.59;100.00
35226;BME280;21813;49.686;21.766;2023-05-20T15:31:40;98978.25;;;18.32;100.00
35226;BME280;21813;49.686;21.766;2023-05-20T15:34:05;98990.06;;;18.20;100.00
35226;BME280;21813;49.686;21.766;2023-05-20T15:36:32;98978.47;;;18.13;100.00
35226;BME280;21813;49.686;21.766;2023-05-20T15:38:57;98961.91;;;18.02;100.00